South Sioux City, Nebraska
Current Conditions -  °F | °C
As of 2:52 AM on Wednesday 28 Jan 2015 (Local Time) from KSUX Reporting Station
Clear Clear  
Wind Chill: 23°   Ceiling: Unl
Heat Index: 31°   Visibility: 10mi
Dew Point: 28°   Wind: 8mph
Humidity: 89%   Direction: 120°ESE
Pressure: 29.93"   Gusts: NA
Location:  42.47°N, 96.41°W
Report Text: KSUX 280852Z 12007KT 10SM CLR M01/M02 A2993 RMK AO2 SLP143 T10061022 57011
Loading
Personal Weather Stations






























Interactive Weather Map New forecast layout! Learn more

10-Day Weather Forecast

Advertisements
Track Severe Weather on mobile